Time;durP1;ratioP1;P1;durP2;ratioP2;P2;SDS_P1;SDS_P2;PMS_P1;PMS_P2;Temp;Humidity;BMP_temperature;BMP_pressure;BME280_temperature;BME280_humidity;BME280_pressure;Samples;Min_cycle;Max_cycle;Signal;HPM_P1;HPM_P2
2022/05/09 00:00:01;;;;;;;;;;;;;;;;;;1039804;28;3927;-46
2022/05/09 00:00:31;;;;;;;;;;;;;;;;;;1040219;28;3885;-47
2022/05/09 00:01:08;;;;;;;;;;;;;;;;;;1040418;28;3790;-48
2022/05/09 00:01:38;;;;;;;;;;;;;;;;;;1039925;28;3723;-49
2022/05/09 00:02:08;;;;;;;;;;;;;;;;;;1040053;28;3885;-51
2022/05/09 00:02:39;;;;;;;;;;;;;;;;;;1040601;28;3685;-48
2022/05/09 00:03:09;;;;;;;;;;;;;;;;;;1040361;28;4219;-49
2022/05/09 00:03:40;;;;;;;;;;;;;;;;;;1040264;28;4214;-49
2022/05/09 00:04:10;;;;;;;;;;;;;;;;;;1040109;28;4069;-50
2022/05/09 00:04:40;;;;;;;;;;;;;;;;;;1040306;28;3588;-48
2022/05/09 00:05:13;;;;;;;;;;;;;;;;;;1039200;28;4263;-47
2022/05/09 00:05:43;;;;;;;;;;;;;;;;;;1042132;28;1575;-47
2022/05/09 00:06:14;;;;;;;;;;;;;;;;;;1040174;28;4169;-48
2022/05/09 00:06:45;;;;;;;;;;;;;;;;;;1039341;28;3701;-51
2022/05/09 00:07:15;;;;;;;;;;;;;;;;;;1040955;28;4026;-47
2022/05/09 00:07:53;;;;;;;;;;;;;;;;;;1041129;28;4255;-49
2022/05/09 00:08:23;;;;;;;;;;;;;;;;;;1040509;28;3714;-48
2022/05/09 00:08:53;;;;;;;;;;;;;;;;;;1040334;28;3813;-48
2022/05/09 00:09:23;;;;;;;;;;;;;;;;;;1040624;28;3425;-45
2022/05/09 00:09:54;;;;;;;;;;;;;;;;;;1041542;28;4470;-50
2022/05/09 00:10:25;;;;;;;;;;;;;;;;;;1038787;28;3773;-46
2022/05/09 00:10:56;;;;;;;;;;;;;;;;;;1041917;28;4051;-46
2022/05/09 00:11:26;;;;;;;;;;;;;;;;;;1040199;28;3289;-47
2022/05/09 00:12:03;;;;;;;;;;;;;;;;;;1039989;28;3773;-45
2022/05/09 00:12:34;;;;;;;;;;;;;;;;;;1040837;28;3283;-45
2022/05/09 00:13:04;;;;;;;;;;;;;;;;;;1041255;28;4096;-47
2022/05/09 00:13:35;;;;;;;;;;;;;;;;;;1039562;28;3857;-47
2022/05/09 00:14:05;;;;;;;;;;;;;;;;;;1040192;28;4001;-50
2022/05/09 00:14:36;;;;;;;;;;;;;;;;;;1040928;28;3832;-49
2022/05/09 00:15:06;;;;;;;;;;;;;;;;;;1040143;28;4036;-48
2022/05/09 00:15:36;;;;;;;;;;;;;;;;;;1039422;28;4013;-49
2022/05/09 00:16:07;;;;;;;;;;;;;;;;;;1040660;28;3857;-49
2022/05/09 00:16:37;;;;;;;;;;;;;;;;;;1038970;28;4081;-49
2022/05/09 00:17:08;;;;;;;;;;;;;;;;;;1031455;28;4194;-50
2022/05/09 00:17:38;;;;;;;;;;;;;;;;;;1030853;28;3609;-48
2022/05/09 00:18:09;;;;;;;;;;;;;;;;;;1032485;28;4720;-48
2022/05/09 00:18:39;;;;;;;;;;;;;;;;;;1032180;28;3065;-51
2022/05/09 00:19:10;;;;;;;;;;;;;;;;;;1037769;28;3927;-48
2022/05/09 00:19:40;;;;;;;;;;;;;;;;;;1043715;28;3868;-52
2022/05/09 00:20:11;;;;;;;;;;;;;;;;;;1037526;28;3811;-46
2022/05/09 00:20:41;;;;;;;;;;;;;;;;;;1036435;28;3931;-48
2022/05/09 00:21:12;;;;;;;;;;;;;;;;;;1039516;28;3946;-47
2022/05/09 00:22:02;;;;;;;;;;;;;;;;;;1034324;28;4432;-47
2022/05/09 00:22:46;;;;;;;;;;;;;;;;;;1039155;28;3835;-46
2022/05/09 00:23:16;;;;;;;;;;;;;;;;;;1025707;28;4147;-50
2022/05/09 00:23:47;;;;;;;;;;;;;;;;;;1039608;28;4236;-50
2022/05/09 00:24:17;;;;;;;;;;;;;;;;;;1041206;28;1204;-47
2022/05/09 00:24:48;;;;;;;;;;;;;;;;;;1039747;28;4071;-47
2022/05/09 00:25:22;;;;;;;;;;;;;;;;;;1042101;28;2184;-46
2022/05/09 00:25:53;;;;;;;;;;;;;;;;;;1038116;28;3803;-46
2022/05/09 00:26:24;;;;;;;;;;;;;;;;;;1041755;28;3063;-50
2022/05/09 00:26:55;;;;;;;;;;;;;;;;;;1039762;28;3992;-51
2022/05/09 00:27:25;;;;;;;;;;;;;;;;;;1041308;28;2614;-47
2022/05/09 00:27:56;;;;;;;;;;;;;;;;;;1039694;28;3812;-50
2022/05/09 00:28:26;;;;;;;;;;;;;;;;;;1041074;28;3501;-47
2022/05/09 00:28:58;;;;;;;;;;;;;;;;;;1040317;28;4210;-48
2022/05/09 00:29:28;;;;;;;;;;;;;;;;;;1044408;28;2782;-51
2022/05/09 00:29:58;;;;;;;;;;;;;;;;;;1039961;28;3884;-46
2022/05/09 00:30:28;;;;;;;;;;;;;;;;;;1039185;28;3878;-47
2022/05/09 00:30:59;;;;;;;;;;;;;;;;;;1039216;28;4401;-46
2022/05/09 00:31:29;;;;;;;;;;;;;;;;;;1035890;28;3798;-49
2022/05/09 00:32:00;;;;;;;;;;;;;;;;;;1038727;28;3911;-45
2022/05/09 00:32:30;;;;;;;;;;;;;;;;;;1040523;28;3254;-48
2022/05/09 00:33:00;;;;;;;;;;;;;;;;;;1040498;28;3954;-47
2022/05/09 00:33:31;;;;;;;;;;;;;;;;;;1040261;28;2549;-49
2022/05/09 00:34:01;;;;;;;;;;;;;;;;;;1039956;28;4189;-47
2022/05/09 00:34:32;;;;;;;;;;;;;;;;;;1040855;28;3055;-49
2022/05/09 00:35:03;;;;;;;;;;;;;;;;;;1039603;28;4437;-47
2022/05/09 00:35:34;;;;;;;;;;;;;;;;;;1039613;28;3660;-46
2022/05/09 00:36:04;;;;;;;;;;;;;;;;;;1039804;28;4239;-47
2022/05/09 00:36:34;;;;;;;;;;;;;;;;;;1039712;28;2131;-49
2022/05/09 00:37:05;;;;;;;;;;;;;;;;;;1037589;28;4430;-46
2022/05/09 00:37:41;;;;;;;;;;;;;;;;;;1039447;28;4200;-49
2022/05/09 00:38:12;;;;;;;;;;;;;;;;;;1039641;28;4092;-49
2022/05/09 00:38:43;;;;;;;;;;;;;;;;;;1040747;28;3751;-46
2022/05/09 00:39:14;;;;;;;;;;;;;;;;;;1038558;28;3836;-48
2022/05/09 00:39:46;;;;;;;;;;;;;;;;;;1034885;28;3057;-47
2022/05/09 00:40:16;;;;;;;;;;;;;;;;;;1035466;28;3975;-46
2022/05/09 00:41:37;;;;;;;;;;;;;;;;;;1039743;28;2493;-51
2022/05/09 00:42:12;;;;;;;;;;;;;;;;;;1040500;28;4081;-45
2022/05/09 00:42:44;;;;;;;;;;;;;;;;;;1039130;28;3777;-47
2022/05/09 00:43:33;;;;;;;;;;;;;;;;;;1041145;28;3776;-50
2022/05/09 00:44:10;;;;;;;;;;;;;;;;;;1038511;28;3875;-45
2022/05/09 00:44:41;;;;;;;;;;;;;;;;;;1043429;28;2989;-49
2022/05/09 00:45:13;;;;;;;;;;;;;;;;;;1039980;28;4322;-47
2022/05/09 00:45:43;;;;;;;;;;;;;;;;;;1036115;28;4098;-50
2022/05/09 00:46:13;;;;;;;;;;;;;;;;;;1036417;28;3767;-48
2022/05/09 00:46:45;;;;;;;;;;;;;;;;;;1036025;28;3766;-49
2022/05/09 00:47:15;;;;;;;;;;;;;;;;;;1037824;28;3717;-48
2022/05/09 00:47:46;;;;;;;;;;;;;;;;;;1038932;28;3875;-47
2022/05/09 00:48:16;;;;;;;;;;;;;;;;;;1042013;28;1756;-50
2022/05/09 00:48:47;;;;;;;;;;;;;;;;;;1038322;28;4110;-50
2022/05/09 00:49:25;;;;;;;;;;;;;;;;;;1037488;28;3883;-47
2022/05/09 00:49:59;;;;;;;;;;;;;;;;;;1037889;28;4152;-50
2022/05/09 00:50:31;;;;;;;;;;;;;;;;;;1040998;28;1941;-49
2022/05/09 00:51:03;;;;;;;;;;;;;;;;;;1043716;28;4015;-48
2022/05/09 00:51:34;;;;;;;;;;;;;;;;;;1044750;28;3088;-47
2022/05/09 00:52:09;;;;;;;;;;;;;;;;;;1037137;28;4147;-49
2022/05/09 00:52:43;;;;;;;;;;;;;;;;;;1037891;28;4031;-50
2022/05/09 00:53:13;;;;;;;;;;;;;;;;;;1037381;28;3781;-45
2022/05/09 00:53:43;;;;;;;;;;;;;;;;;;1037510;28;4303;-51
2022/05/09 00:54:14;;;;;;;;;;;;;;;;;;1039781;28;4121;-51
2022/05/09 00:54:48;;;;;;;;;;;;;;;;;;1036792;28;2167;-46
2022/05/09 00:55:35;;;;;;;;;;;;;;;;;;1036886;28;3911;-49
2022/05/09 00:56:10;;;;;;;;;;;;;;;;;;1034392;28;3808;-49
2022/05/09 00:56:43;;;;;;;;;;;;;;;;;;1038743;28;3025;-46
2022/05/09 00:57:18;;;;;;;;;;;;;;;;;;1039533;28;4539;-49
2022/05/09 00:57:52;;;;;;;;;;;;;;;;;;1040068;28;4237;-47
2022/05/09 00:58:25;;;;;;;;;;;;;;;;;;1041049;28;1803;-51
2022/05/09 00:58:59;;;;;;;;;;;;;;;;;;1037415;28;3904;-46
2022/05/09 00:59:31;;;;;;;;;;;;;;;;;;1041164;28;2206;-48
2022/05/09 01:00:07;;;;;;;;;;;;;;;;;;1039490;28;4070;-49
2022/05/09 01:00:38;;;;;;;;;;;;;;;;;;1040489;28;2896;-50
2022/05/09 01:01:10;;;;;;;;;;;;;;;;;;1035290;28;4132;-48
2022/05/09 01:01:41;;;;;;;;;;;;;;;;;;1037275;28;3631;-47
2022/05/09 01:02:14;;;;;;;;;;;;;;;;;;1038809;28;4154;-48
2022/05/09 01:02:47;;;;;;;;;;;;;;;;;;1041514;28;1914;-45
2022/05/09 01:03:21;;;;;;;;;;;;;;;;;;1039887;28;5054;-50
2022/05/09 01:04:05;;;;;;;;;;;;;;;;;;1039194;28;4282;-50
2022/05/09 01:04:40;;;;;;;;;;;;;;;;;;1039258;28;3057;-49
2022/05/09 01:05:12;;;;;;;;;;;;;;;;;;1034645;28;3948;-47
2022/05/09 01:05:48;;;;;;;;;;;;;;;;;;1035314;28;3355;-46
2022/05/09 01:06:18;;;;;;;;;;;;;;;;;;1035961;28;3922;-47
2022/05/09 01:06:48;;;;;;;;;;;;;;;;;;1041173;28;3797;-47
2022/05/09 01:07:19;;;;;;;;;;;;;;;;;;1039613;28;3740;-46
2022/05/09 01:07:49;;;;;;;;;;;;;;;;;;1040361;28;3856;-47
2022/05/09 01:08:20;;;;;;;;;;;;;;;;;;1039799;28;3814;-48
2022/05/09 01:08:50;;;;;;;;;;;;;;;;;;1041325;28;3892;-50
2022/05/09 01:09:21;;;;;;;;;;;;;;;;;;1040132;28;3839;-47
2022/05/09 01:09:51;;;;;;;;;;;;;;;;;;1039385;28;5095;-48
2022/05/09 01:10:23;;;;;;;;;;;;;;;;;;1040581;28;5442;-47
2022/05/09 01:10:54;;;;;;;;;;;;;;;;;;1039832;28;4044;-49
2022/05/09 01:11:25;;;;;;;;;;;;;;;;;;1035539;28;3922;-49
2022/05/09 01:11:55;;;;;;;;;;;;;;;;;;1035512;28;4289;-48
2022/05/09 01:12:29;;;;;;;;;;;;;;;;;;1040466;28;3987;-47
2022/05/09 01:13:05;;;;;;;;;;;;;;;;;;1039939;28;3967;-47
2022/05/09 01:13:36;;;;;;;;;;;;;;;;;;1039868;28;3765;-47
2022/05/09 01:14:19;;;;;;;;;;;;;;;;;;1039741;28;4060;-47
2022/05/09 01:14:49;;;;;;;;;;;;;;;;;;1040434;28;3930;-46
2022/05/09 01:15:19;;;;;;;;;;;;;;;;;;1040522;28;3850;-50
2022/05/09 01:15:52;;;;;;;;;;;;;;;;;;1040454;28;3983;-47
2022/05/09 01:16:22;;;;;;;;;;;;;;;;;;1040265;28;3831;-47
2022/05/09 01:16:52;;;;;;;;;;;;;;;;;;1040298;28;3837;-49
2022/05/09 01:17:23;;;;;;;;;;;;;;;;;;1038642;28;3894;-49
2022/05/09 01:17:54;;;;;;;;;;;;;;;;;;1039355;28;4034;-47
2022/05/09 01:18:24;;;;;;;;;;;;;;;;;;1039704;28;3858;-45
2022/05/09 01:18:57;;;;;;;;;;;;;;;;;;1038569;28;3932;-53
2022/05/09 01:19:33;;;;;;;;;;;;;;;;;;1038678;28;3825;-45
2022/05/09 01:20:03;;;;;;;;;;;;;;;;;;1040559;28;3950;-47
2022/05/09 01:20:34;;;;;;;;;;;;;;;;;;1039897;28;3640;-46
2022/05/09 01:21:34;;;;;;;;;;;;;;;;;;1038938;28;3904;-48
2022/05/09 01:22:22;;;;;;;;;;;;;;;;;;1038115;28;4136;-48
2022/05/09 01:22:56;;;;;;;;;;;;;;;;;;1037637;28;4253;-50
2022/05/09 01:23:31;;;;;;;;;;;;;;;;;;1039771;28;3495;-49
2022/05/09 01:24:03;;;;;;;;;;;;;;;;;;1039643;28;4135;-51
2022/05/09 01:24:33;;;;;;;;;;;;;;;;;;1040036;28;4074;-46
2022/05/09 01:25:06;;;;;;;;;;;;;;;;;;1039533;28;3980;-48
2022/05/09 01:25:37;;;;;;;;;;;;;;;;;;1040594;28;3815;-49
2022/05/09 01:26:07;;;;;;;;;;;;;;;;;;1040239;28;3826;-47
2022/05/09 01:26:38;;;;;;;;;;;;;;;;;;1035353;28;3887;-48
2022/05/09 01:27:08;;;;;;;;;;;;;;;;;;1039770;28;4253;-48
2022/05/09 01:27:40;;;;;;;;;;;;;;;;;;1040559;28;3579;-51
2022/05/09 01:28:11;;;;;;;;;;;;;;;;;;1040603;28;3818;-46
2022/05/09 01:28:42;;;;;;;;;;;;;;;;;;1038743;28;3161;-47
2022/05/09 01:29:21;;;;;;;;;;;;;;;;;;1039846;28;4045;-47
2022/05/09 01:29:56;;;;;;;;;;;;;;;;;;1040897;28;4383;-46
2022/05/09 01:30:36;;;;;;;;;;;;;;;;;;1039757;28;3727;-48
2022/05/09 01:31:09;;;;;;;;;;;;;;;;;;1039831;28;4111;-48
2022/05/09 01:31:41;;;;;;;;;;;;;;;;;;1040336;28;3190;-50
2022/05/09 01:32:12;;;;;;;;;;;;;;;;;;1038748;28;3782;-51
2022/05/09 01:32:49;;;;;;;;;;;;;;;;;;1039175;28;4448;-48
2022/05/09 01:33:40;;;;;;;;;;;;;;;;;;1039623;28;3956;-48
2022/05/09 01:34:12;;;;;;;;;;;;;;;;;;1038623;28;3777;-49
2022/05/09 01:34:45;;;;;;;;;;;;;;;;;;1040091;28;3712;-50
2022/05/09 01:35:28;;;;;;;;;;;;;;;;;;1039597;28;3888;-50
2022/05/09 01:36:04;;;;;;;;;;;;;;;;;;1040249;28;4248;-49
2022/05/09 01:36:35;;;;;;;;;;;;;;;;;;1040735;28;3909;-47
2022/05/09 01:37:07;;;;;;;;;;;;;;;;;;1039221;28;4379;-48
2022/05/09 01:37:39;;;;;;;;;;;;;;;;;;1038642;28;4065;-47
2022/05/09 01:38:18;;;;;;;;;;;;;;;;;;1040407;28;4063;-48
2022/05/09 01:38:51;;;;;;;;;;;;;;;;;;1039922;28;4072;-49
2022/05/09 01:39:24;;;;;;;;;;;;;;;;;;1039494;28;3640;-47
2022/05/09 01:39:54;;;;;;;;;;;;;;;;;;1039204;28;3914;-47
2022/05/09 01:40:24;;;;;;;;;;;;;;;;;;1041615;28;1718;-46
2022/05/09 01:40:54;;;;;;;;;;;;;;;;;;1039311;28;4030;-47
2022/05/09 01:41:26;;;;;;;;;;;;;;;;;;1041101;28;2787;-48
2022/05/09 01:41:57;;;;;;;;;;;;;;;;;;1039850;28;3901;-46
2022/05/09 01:42:27;;;;;;;;;;;;;;;;;;1041756;28;2127;-45
2022/05/09 01:42:57;;;;;;;;;;;;;;;;;;1038350;28;3921;-46
2022/05/09 01:43:35;;;;;;;;;;;;;;;;;;1040207;28;3641;-51
2022/05/09 01:44:07;;;;;;;;;;;;;;;;;;1044236;28;4081;-52
2022/05/09 01:44:38;;;;;;;;;;;;;;;;;;1042893;28;3673;-48
2022/05/09 01:45:09;;;;;;;;;;;;;;;;;;1043477;28;3785;-48
2022/05/09 01:45:39;;;;;;;;;;;;;;;;;;1044179;28;3037;-47
2022/05/09 01:46:12;;;;;;;;;;;;;;;;;;1040456;28;3823;-47
2022/05/09 01:49:59;;;;;;;;;;;;;;;;;;1038529;28;4062;-50
2022/05/09 01:50:29;;;;;;;;;;;;;;;;;;1041068;28;1260;-45
2022/05/09 01:50:59;;;;;;;;;;;;;;;;;;1035300;28;3830;-46
2022/05/09 01:51:30;;;;;;;;;;;;;;;;;;1035359;28;3651;-49
2022/05/09 01:52:03;;;;;;;;;;;;;;;;;;1035565;28;3812;-49
2022/05/09 01:52:33;;;;;;;;;;;;;;;;;;1036610;28;3842;-47
2022/05/09 01:53:04;;;;;;;;;;;;;;;;;;1042805;28;4267;-48
2022/05/09 01:53:34;;;;;;;;;;;;;;;;;;1045051;28;1808;-50
2022/05/09 01:54:05;;;;;;;;;;;;;;;;;;1044215;28;4224;-45
2022/05/09 01:54:35;;;;;;;;;;;;;;;;;;1038160;28;2866;-48
2022/05/09 01:55:06;;;;;;;;;;;;;;;;;;1039386;28;3820;-47
2022/05/09 01:55:36;;;;;;;;;;;;;;;;;;1036441;28;2965;-48
2022/05/09 01:56:06;;;;;;;;;;;;;;;;;;1034044;28;3962;-45
2022/05/09 01:56:38;;;;;;;;;;;;;;;;;;1040414;28;2070;-48
2022/05/09 01:57:09;;;;;;;;;;;;;;;;;;1038907;28;3951;-48
2022/05/09 01:57:39;;;;;;;;;;;;;;;;;;1039625;28;2899;-52
2022/05/09 01:58:09;;;;;;;;;;;;;;;;;;1039797;28;3890;-47
2022/05/09 01:58:40;;;;;;;;;;;;;;;;;;1040866;28;4496;-50
2022/05/09 01:59:11;;;;;;;;;;;;;;;;;;1037253;28;3916;-47
2022/05/09 01:59:42;;;;;;;;;;;;;;;;;;1040734;28;3686;-47
2022/05/09 02:00:13;;;;;;;;;;;;;;;;;;1038061;28;5389;-50
2022/05/09 02:00:44;;;;;;;;;;;;;;;;;;1041136;28;1841;-46
2022/05/09 02:01:16;;;;;;;;;;;;;;;;;;1038840;28;4029;-47
2022/05/09 02:01:49;;;;;;;;;;;;;;;;;;1039797;28;4890;-49
2022/05/09 02:02:20;;;;;;;;;;;;;;;;;;1039197;28;3978;-49
2022/05/09 02:02:50;;;;;;;;;;;;;;;;;;1039454;28;4135;-51
2022/05/09 02:03:21;;;;;;;;;;;;;;;;;;1039683;28;4171;-50
2022/05/09 02:03:52;;;;;;;;;;;;;;;;;;1038162;28;3829;-50
2022/05/09 02:04:23;;;;;;;;;;;;;;;;;;1040998;28;3581;-47
2022/05/09 02:04:54;;;;;;;;;;;;;;;;;;1036769;28;4001;-52
2022/05/09 02:05:24;;;;;;;;;;;;;;;;;;1039597;28;2741;-47
2022/05/09 02:05:54;;;;;;;;;;;;;;;;;;1038972;28;3956;-47
2022/05/09 02:06:24;;;;;;;;;;;;;;;;;;1041286;28;1682;-48
2022/05/09 02:06:57;;;;;;;;;;;;;;;;;;1043314;28;3830;-47
2022/05/09 02:07:27;;;;;;;;;;;;;;;;;;1044455;28;3967;-46
2022/05/09 02:07:57;;;;;;;;;;;;;;;;;;1043230;28;3950;-48
2022/05/09 02:08:28;;;;;;;;;;;;;;;;;;1044115;28;3740;-47
2022/05/09 02:08:58;;;;;;;;;;;;;;;;;;1042645;28;4586;-47
2022/05/09 02:09:28;;;;;;;;;;;;;;;;;;1040909;28;2157;-45
2022/05/09 02:09:58;;;;;;;;;;;;;;;;;;1039179;28;3804;-46
2022/05/09 02:10:29;;;;;;;;;;;;;;;;;;1040828;28;3242;-51
2022/05/09 02:10:59;;;;;;;;;;;;;;;;;;1038486;28;3923;-45
2022/05/09 02:11:29;;;;;;;;;;;;;;;;;;1040683;28;3602;-47
2022/05/09 02:12:00;;;;;;;;;;;;;;;;;;1039856;28;4132;-48
2022/05/09 02:12:30;;;;;;;;;;;;;;;;;;1040692;28;1957;-49
2022/05/09 02:13:00;;;;;;;;;;;;;;;;;;1038846;28;3964;-50
2022/05/09 02:13:31;;;;;;;;;;;;;;;;;;1041194;28;4336;-46
2022/05/09 02:14:01;;;;;;;;;;;;;;;;;;1039365;28;4000;-50
2022/05/09 02:14:32;;;;;;;;;;;;;;;;;;1040693;28;2229;-47
2022/05/09 02:15:02;;;;;;;;;;;;;;;;;;1037672;28;4086;-48
2022/05/09 02:15:32;;;;;;;;;;;;;;;;;;1040988;28;3812;-50
2022/05/09 02:16:03;;;;;;;;;;;;;;;;;;1039515;28;3982;-50
2022/05/09 02:16:34;;;;;;;;;;;;;;;;;;1041259;28;1580;-44
2022/05/09 02:17:06;;;;;;;;;;;;;;;;;;1039300;28;3886;-46
2022/05/09 02:17:37;;;;;;;;;;;;;;;;;;1041371;28;2192;-47
2022/05/09 02:18:07;;;;;;;;;;;;;;;;;;1039483;28;3782;-51
2022/05/09 02:18:38;;;;;;;;;;;;;;;;;;1037951;28;1947;-45
2022/05/09 02:19:15;;;;;;;;;;;;;;;;;;1036835;28;4182;-49
2022/05/09 02:19:45;;;;;;;;;;;;;;;;;;1037210;28;4080;-47
2022/05/09 02:20:16;;;;;;;;;;;;;;;;;;1038181;28;3718;-50
2022/05/09 02:20:49;;;;;;;;;;;;;;;;;;1041005;28;4302;-47
2022/05/09 02:21:32;;;;;;;;;;;;;;;;;;1042485;28;3815;-44
2022/05/09 02:22:10;;;;;;;;;;;;;;;;;;1046362;28;3903;-50
2022/05/09 02:22:40;;;;;;;;;;;;;;;;;;1049248;28;1974;-49
2022/05/09 02:23:12;;;;;;;;;;;;;;;;;;1047908;28;3854;-46
2022/05/09 02:23:42;;;;;;;;;;;;;;;;;;1048754;28;2731;-46
2022/05/09 02:24:12;;;;;;;;;;;;;;;;;;1047203;28;4012;-47
2022/05/09 02:24:43;;;;;;;;;;;;;;;;;;1049472;28;1635;-48
2022/05/09 02:25:26;;;;;;;;;;;;;;;;;;1046638;28;3973;-47
2022/05/09 02:25:57;;;;;;;;;;;;;;;;;;1048206;28;4007;-48
2022/05/09 02:26:27;;;;;;;;;;;;;;;;;;1047989;28;3706;-50
2022/05/09 02:26:57;;;;;;;;;;;;;;;;;;1046722;28;3926;-47
2022/05/09 02:27:28;;;;;;;;;;;;;;;;;;1042540;28;3875;-48
2022/05/09 02:27:59;;;;;;;;;;;;;;;;;;1040764;28;3996;-45
2022/05/09 02:28:29;;;;;;;;;;;;;;;;;;1035679;28;3832;-46
2022/05/09 02:28:59;;;;;;;;;;;;;;;;;;1035711;28;4206;-48
2022/05/09 02:29:31;;;;;;;;;;;;;;;;;;1037296;28;3732;-49
2022/05/09 02:30:03;;;;;;;;;;;;;;;;;;1041541;28;4733;-48
2022/05/09 02:30:33;;;;;;;;;;;;;;;;;;1049206;28;3941;-48
2022/05/09 02:31:03;;;;;;;;;;;;;;;;;;1046726;28;3862;-50
2022/05/09 02:31:34;;;;;;;;;;;;;;;;;;1047802;28;3953;-49
2022/05/09 02:32:05;;;;;;;;;;;;;;;;;;1047800;28;4313;-46
2022/05/09 02:32:35;;;;;;;;;;;;;;;;;;1048726;28;3470;-46
2022/05/09 02:33:07;;;;;;;;;;;;;;;;;;1043705;28;4075;-47
2022/05/09 02:33:38;;;;;;;;;;;;;;;;;;1043871;28;3029;-47
2022/05/09 02:34:08;;;;;;;;;;;;;;;;;;1044659;28;3881;-47
2022/05/09 02:34:39;;;;;;;;;;;;;;;;;;1039138;28;3884;-48
2022/05/09 02:35:09;;;;;;;;;;;;;;;;;;1037776;28;3925;-50
2022/05/09 02:35:40;;;;;;;;;;;;;;;;;;1037998;28;3630;-49
2022/05/09 02:36:10;;;;;;;;;;;;;;;;;;1037947;28;3907;-49
2022/05/09 02:36:41;;;;;;;;;;;;;;;;;;1042928;28;3688;-52
2022/05/09 02:37:11;;;;;;;;;;;;;;;;;;1047837;28;3983;-46
2022/05/09 02:37:41;;;;;;;;;;;;;;;;;;1049154;28;2728;-48
2022/05/09 02:38:11;;;;;;;;;;;;;;;;;;1049001;28;3897;-45
2022/05/09 02:38:42;;;;;;;;;;;;;;;;;;1048135;28;3096;-47
2022/05/09 02:39:12;;;;;;;;;;;;;;;;;;1045924;28;4005;-47
2022/05/09 02:39:42;;;;;;;;;;;;;;;;;;1044056;28;3737;-47
2022/05/09 02:40:12;;;;;;;;;;;;;;;;;;1044899;28;3934;-48
2022/05/09 02:40:43;;;;;;;;;;;;;;;;;;1042369;28;4176;-47
2022/05/09 02:41:13;;;;;;;;;;;;;;;;;;1041752;28;3847;-52
2022/05/09 02:41:43;;;;;;;;;;;;;;;;;;1044894;28;3160;-46
2022/05/09 02:42:13;;;;;;;;;;;;;;;;;;1045925;28;4271;-48
2022/05/09 02:42:44;;;;;;;;;;;;;;;;;;1047361;28;6906;-46
2022/05/09 02:43:14;;;;;;;;;;;;;;;;;;1048907;28;3792;-47
2022/05/09 02:43:44;;;;;;;;;;;;;;;;;;1046873;28;3638;-50
2022/05/09 02:44:15;;;;;;;;;;;;;;;;;;1049861;28;3889;-46
2022/05/09 02:44:45;;;;;;;;;;;;;;;;;;1048329;28;4385;-49
2022/05/09 02:45:15;;;;;;;;;;;;;;;;;;1048955;28;3902;-48
2022/05/09 02:45:46;;;;;;;;;;;;;;;;;;1047198;28;4284;-50
2022/05/09 02:46:16;;;;;;;;;;;;;;;;;;1049862;28;3451;-46
2022/05/09 02:46:46;;;;;;;;;;;;;;;;;;1049252;28;3812;-47
2022/05/09 02:47:19;;;;;;;;;;;;;;;;;;1049097;28;2073;-48
2022/05/09 02:47:50;;;;;;;;;;;;;;;;;;1048187;28;3809;-47
2022/05/09 02:48:20;;;;;;;;;;;;;;;;;;1049917;28;3759;-49
2022/05/09 02:48:50;;;;;;;;;;;;;;;;;;1047787;28;4107;-46
2022/05/09 02:49:21;;;;;;;;;;;;;;;;;;1045279;28;3939;-47
2022/05/09 02:49:51;;;;;;;;;;;;;;;;;;1044643;28;3830;-45
2022/05/09 02:50:22;;;;;;;;;;;;;;;;;;1043584;28;4963;-50
2022/05/09 02:50:53;;;;;;;;;;;;;;;;;;1044273;28;4023;-48
2022/05/09 02:51:23;;;;;;;;;;;;;;;;;;1049468;28;3811;-48
2022/05/09 02:51:53;;;;;;;;;;;;;;;;;;1048048;28;3842;-49
2022/05/09 02:52:24;;;;;;;;;;;;;;;;;;1048891;28;3392;-48
2022/05/09 02:52:54;;;;;;;;;;;;;;;;;;1048211;28;4427;-47
2022/05/09 02:53:24;;;;;;;;;;;;;;;;;;1048709;28;3867;-47
2022/05/09 02:53:56;;;;;;;;;;;;;;;;;;1040250;28;3920;-47
2022/05/09 02:54:27;;;;;;;;;;;;;;;;;;1042071;28;3914;-46
2022/05/09 02:54:58;;;;;;;;;;;;;;;;;;1041155;28;4309;-48
2022/05/09 02:55:31;;;;;;;;;;;;;;;;;;1043361;28;3060;-47
2022/05/09 02:56:02;;;;;;;;;;;;;;;;;;1048617;28;4238;-49
2022/05/09 02:56:32;;;;;;;;;;;;;;;;;;1048018;28;2526;-50
2022/05/09 02:57:03;;;;;;;;;;;;;;;;;;1048272;28;3779;-48
2022/05/09 02:57:34;;;;;;;;;;;;;;;;;;1049197;28;3794;-50
2022/05/09 02:58:04;;;;;;;;;;;;;;;;;;1048338;28;3872;-50
2022/05/09 02:58:35;;;;;;;;;;;;;;;;;;1049500;28;2058;-50
2022/05/09 02:59:05;;;;;;;;;;;;;;;;;;1048033;28;4043;-47
2022/05/09 02:59:35;;;;;;;;;;;;;;;;;;1048232;28;3747;-45
2022/05/09 03:00:08;;;;;;;;;;;;;;;;;;1049706;28;3788;-47
2022/05/09 03:00:38;;;;;;;;;;;;;;;;;;1048837;28;2277;-47
2022/05/09 03:01:08;;;;;;;;;;;;;;;;;;1049008;28;3860;-48
2022/05/09 03:01:39;;;;;;;;;;;;;;;;;;1048619;28;4034;-47
2022/05/09 03:02:09;;;;;;;;;;;;;;;;;;1048565;28;4230;-48
2022/05/09 03:02:40;;;;;;;;;;;;;;;;;;1044970;28;3686;-46
2022/05/09 03:04:48;;;;;;;;;;;;;;;;;;1048314;28;3981;-46
2022/05/09 03:05:18;;;;;;;;;;;;;;;;;;1048841;28;3713;-45
2022/05/09 03:05:49;;;;;;;;;;;;;;;;;;1048196;28;3918;-45
2022/05/09 03:06:19;;;;;;;;;;;;;;;;;;1048306;28;3098;-47
2022/05/09 03:06:49;;;;;;;;;;;;;;;;;;1048755;28;3826;-51
2022/05/09 03:07:20;;;;;;;;;;;;;;;;;;1049635;28;2229;-48
2022/05/09 03:07:50;;;;;;;;;;;;;;;;;;1048810;28;3899;-48
2022/05/09 03:08:21;;;;;;;;;;;;;;;;;;1044803;28;3137;-47
2022/05/09 03:08:51;;;;;;;;;;;;;;;;;;1043225;28;3980;-47
2022/05/09 03:09:21;;;;;;;;;;;;;;;;;;1041342;28;3836;-46
2022/05/09 03:09:52;;;;;;;;;;;;;;;;;;1039761;28;4932;-50
2022/05/09 03:10:23;;;;;;;;;;;;;;;;;;1045963;28;3846;-45
2022/05/09 03:10:53;;;;;;;;;;;;;;;;;;1044126;28;5226;-46
2022/05/09 03:11:24;;;;;;;;;;;;;;;;;;1048718;28;3694;-47
2022/05/09 03:11:54;;;;;;;;;;;;;;;;;;1048772;28;3833;-45
2022/05/09 03:12:24;;;;;;;;;;;;;;;;;;1049384;28;2234;-47
2022/05/09 03:12:59;;;;;;;;;;;;;;;;;;1047283;28;4213;-49
2022/05/09 03:13:29;;;;;;;;;;;;;;;;;;1049883;28;3642;-49
2022/05/09 03:14:00;;;;;;;;;;;;;;;;;;1048073;28;3860;-49
2022/05/09 03:14:31;;;;;;;;;;;;;;;;;;1047365;28;3941;-47
2022/05/09 03:15:01;;;;;;;;;;;;;;;;;;1046337;28;4189;-48
2022/05/09 03:15:35;;;;;;;;;;;;;;;;;;1049662;28;1715;-46
2022/05/09 03:16:06;;;;;;;;;;;;;;;;;;1048017;28;3959;-46
2022/05/09 03:16:36;;;;;;;;;;;;;;;;;;1049158;28;2339;-44
2022/05/09 03:17:07;;;;;;;;;;;;;;;;;;1049378;28;4053;-52
2022/05/09 03:17:37;;;;;;;;;;;;;;;;;;1049070;28;2063;-45
2022/05/09 03:18:08;;;;;;;;;;;;;;;;;;1048479;28;3900;-48
2022/05/09 03:18:38;;;;;;;;;;;;;;;;;;1049808;28;2018;-46
2022/05/09 03:19:09;;;;;;;;;;;;;;;;;;1048075;28;4238;-48
2022/05/09 03:19:45;;;;;;;;;;;;;;;;;;1049531;28;3880;-49
2022/05/09 03:20:16;;;;;;;;;;;;;;;;;;1043744;28;3922;-47
2022/05/09 03:20:46;;;;;;;;;;;;;;;;;;1043616;28;4092;-48
2022/05/09 03:21:31;;;;;;;;;;;;;;;;;;1043681;28;3931;-51
2022/05/09 03:22:08;;;;;;;;;;;;;;;;;;1039354;28;4090;-47
2022/05/09 03:22:38;;;;;;;;;;;;;;;;;;1041325;28;1931;-47
2022/05/09 03:23:08;;;;;;;;;;;;;;;;;;1038329;28;3855;-47
2022/05/09 03:23:38;;;;;;;;;;;;;;;;;;1039804;28;3736;-47
2022/05/09 03:24:09;;;;;;;;;;;;;;;;;;1040646;28;3918;-48
2022/05/09 03:24:39;;;;;;;;;;;;;;;;;;1039866;28;3835;-49
2022/05/09 03:25:09;;;;;;;;;;;;;;;;;;1039413;28;4162;-52
2022/05/09 03:25:40;;;;;;;;;;;;;;;;;;1042294;28;1740;-48
2022/05/09 03:26:10;;;;;;;;;;;;;;;;;;1039691;28;4219;-48
2022/05/09 03:26:41;;;;;;;;;;;;;;;;;;1041471;28;2323;-48
2022/05/09 03:27:14;;;;;;;;;;;;;;;;;;1040495;28;4371;-45
2022/05/09 03:27:44;;;;;;;;;;;;;;;;;;1041743;28;1818;-49
2022/05/09 03:28:19;;;;;;;;;;;;;;;;;;1036443;28;4124;-50
2022/05/09 03:28:49;;;;;;;;;;;;;;;;;;1037611;28;4107;-49
2022/05/09 03:29:19;;;;;;;;;;;;;;;;;;1037367;28;3740;-46
2022/05/09 03:29:50;;;;;;;;;;;;;;;;;;1038830;28;3872;-48
2022/05/09 03:30:20;;;;;;;;;;;;;;;;;;1039698;28;3606;-47
2022/05/09 03:30:52;;;;;;;;;;;;;;;;;;1041155;28;3781;-48
2022/05/09 03:31:23;;;;;;;;;;;;;;;;;;1038221;28;3925;-47
2022/05/09 03:31:53;;;;;;;;;;;;;;;;;;1041025;28;4010;-46
2022/05/09 03:32:23;;;;;;;;;;;;;;;;;;1039745;28;3951;-46
2022/05/09 03:32:54;;;;;;;;;;;;;;;;;;1041057;28;3906;-46
2022/05/09 03:33:27;;;;;;;;;;;;;;;;;;1040508;28;2948;-46
2022/05/09 03:33:57;;;;;;;;;;;;;;;;;;1039877;28;4237;-45
2022/05/09 03:34:29;;;;;;;;;;;;;;;;;;1037906;28;3932;-47
2022/05/09 03:34:59;;;;;;;;;;;;;;;;;;1043195;28;3968;-47
2022/05/09 03:35:30;;;;;;;;;;;;;;;;;;1043646;28;3687;-46
2022/05/09 03:36:01;;;;;;;;;;;;;;;;;;1043831;28;3945;-47
2022/05/09 03:36:32;;;;;;;;;;;;;;;;;;1041570;28;2069;-46
2022/05/09 03:37:02;;;;;;;;;;;;;;;;;;1038574;28;4354;-45
2022/05/09 03:37:32;;;;;;;;;;;;;;;;;;1042176;28;3817;-47
2022/05/09 03:38:04;;;;;;;;;;;;;;;;;;1039111;28;4314;-47
2022/05/09 03:38:34;;;;;;;;;;;;;;;;;;1040596;28;3772;-48
2022/05/09 03:39:04;;;;;;;;;;;;;;;;;;1039656;28;3837;-49
2022/05/09 03:39:35;;;;;;;;;;;;;;;;;;1041805;28;3726;-48
2022/05/09 03:40:05;;;;;;;;;;;;;;;;;;1040363;28;4082;-45
2022/05/09 03:40:36;;;;;;;;;;;;;;;;;;1039772;28;3924;-48
2022/05/09 03:41:06;;;;;;;;;;;;;;;;;;1039688;28;4038;-45
2022/05/09 03:41:36;;;;;;;;;;;;;;;;;;1039584;28;2796;-48
2022/05/09 03:42:07;;;;;;;;;;;;;;;;;;1040028;28;4225;-48
2022/05/09 03:42:37;;;;;;;;;;;;;;;;;;1041667;28;1940;-48
2022/05/09 03:43:07;;;;;;;;;;;;;;;;;;1040436;28;3918;-46
2022/05/09 03:43:38;;;;;;;;;;;;;;;;;;1041673;28;1468;-45
2022/05/09 03:44:08;;;;;;;;;;;;;;;;;;1040305;28;4108;-47
2022/05/09 03:44:38;;;;;;;;;;;;;;;;;;1040361;28;4120;-47
2022/05/09 03:45:08;;;;;;;;;;;;;;;;;;1040494;28;4328;-46
2022/05/09 03:45:39;;;;;;;;;;;;;;;;;;1041939;28;4670;-48